sensor_id;sensor_type;location;lat;lon;timestamp;temperature;humidity
47765;DHT22;33529;49.242;8.670;2023-04-15T00:01:37;4.40;99.90
47765;DHT22;33529;49.242;8.670;2023-04-15T00:04:04;4.40;99.90
47765;DHT22;33529;49.242;8.670;2023-04-15T00:06:31;4.50;99.90
47765;DHT22;33529;49.242;8.670;2023-04-15T00:08:58;4.50;99.90
47765;DHT22;33529;49.242;8.670;2023-04-15T00:11:25;4.50;99.90
47765;DHT22;33529;49.242;8.670;2023-04-15T00:13:52;4.40;99.90
47765;DHT22;33529;49.242;8.670;2023-04-15T00:16:18;4.50;99.90
47765;DHT22;33529;49.242;8.670;2023-04-15T00:18:45;4.40;99.90
47765;DHT22;33529;49.242;8.670;2023-04-15T00:21:12;4.40;99.90
47765;DHT22;33529;49.242;8.670;2023-04-15T00:23:39;4.30;99.90
47765;DHT22;33529;49.242;8.670;2023-04-15T00:26:06;4.30;99.90
47765;DHT22;33529;49.242;8.670;2023-04-15T00:28:33;4.30;99.90
47765;DHT22;33529;49.242;8.670;2023-04-15T00:31:00;4.30;99.90
47765;DHT22;33529;49.242;8.670;2023-04-15T00:33:26;4.30;99.90
47765;DHT22;33529;49.242;8.670;2023-04-15T00:35:53;4.20;99.90
47765;DHT22;33529;49.242;8.670;2023-04-15T00:38:20;4.30;99.90
47765;DHT22;33529;49.242;8.670;2023-04-15T00:40:47;4.40;99.90
47765;DHT22;33529;49.242;8.670;2023-04-15T00:43:15;4.50;99.90
47765;DHT22;33529;49.242;8.670;2023-04-15T00:45:43;4.50;99.90
47765;DHT22;33529;49.242;8.670;2023-04-15T00:48:10;4.60;99.90
47765;DHT22;33529;49.242;8.670;2023-04-15T00:50:37;4.70;99.90
47765;DHT22;33529;49.242;8.670;2023-04-15T00:53:04;4.80;99.90
47765;DHT22;33529;49.242;8.670;2023-04-15T00:55:31;4.90;99.90
47765;DHT22;33529;49.242;8.670;2023-04-15T00:57:58;4.80;99.90
47765;DHT22;33529;49.242;8.670;2023-04-15T01:00:25;4.70;99.90
47765;DHT22;33529;49.242;8.670;2023-04-15T01:02:52;4.70;99.90
47765;DHT22;33529;49.242;8.670;2023-04-15T01:05:19;4.60;99.90
47765;DHT22;33529;49.242;8.670;2023-04-15T01:07:47;4.60;99.90
47765;DHT22;33529;49.242;8.670;2023-04-15T01:10:14;4.70;99.90
47765;DHT22;33529;49.242;8.670;2023-04-15T01:12:41;4.70;99.90
47765;DHT22;33529;49.242;8.670;2023-04-15T01:15:09;4.60;99.90
47765;DHT22;33529;49.242;8.670;2023-04-15T01:17:36;4.70;99.90
47765;DHT22;33529;49.242;8.670;2023-04-15T01:20:06;4.70;99.90
47765;DHT22;33529;49.242;8.670;2023-04-15T01:22:37;4.60;99.90
47765;DHT22;33529;49.242;8.670;2023-04-15T01:25:11;4.70;99.90
47765;DHT22;33529;49.242;8.670;2023-04-15T01:27:40;4.70;99.90
47765;DHT22;33529;49.242;8.670;2023-04-15T01:30:10;4.80;99.90
47765;DHT22;33529;49.242;8.670;2023-04-15T01:32:37;4.80;99.90
47765;DHT22;33529;49.242;8.670;2023-04-15T01:35:05;4.80;99.90
47765;DHT22;33529;49.242;8.670;2023-04-15T01:37:32;4.80;99.90
47765;DHT22;33529;49.242;8.670;2023-04-15T01:39:59;4.70;99.90
47765;DHT22;33529;49.242;8.670;2023-04-15T01:42:26;4.60;99.90
47765;DHT22;33529;49.242;8.670;2023-04-15T01:44:53;4.50;99.90
47765;DHT22;33529;49.242;8.670;2023-04-15T01:47:20;4.40;99.90
47765;DHT22;33529;49.242;8.670;2023-04-15T01:49:47;4.30;99.90
47765;DHT22;33529;49.242;8.670;2023-04-15T01:52:14;4.30;99.90
47765;DHT22;33529;49.242;8.670;2023-04-15T01:54:41;4.20;99.90
47765;DHT22;33529;49.242;8.670;2023-04-15T01:57:08;4.20;99.90
47765;DHT22;33529;49.242;8.670;2023-04-15T01:59:35;4.10;99.90
47765;DHT22;33529;49.242;8.670;2023-04-15T02:02:03;4.10;99.90
47765;DHT22;33529;49.242;8.670;2023-04-15T02:04:30;4.00;99.90
47765;DHT22;33529;49.242;8.670;2023-04-15T02:06:59;3.90;99.90
47765;DHT22;33529;49.242;8.670;2023-04-15T02:09:26;3.80;99.90
47765;DHT22;33529;49.242;8.670;2023-04-15T02:11:53;3.80;99.90
47765;DHT22;33529;49.242;8.670;2023-04-15T02:14:20;3.80;99.90
47765;DHT22;33529;49.242;8.670;2023-04-15T02:16:47;3.80;99.90
47765;DHT22;33529;49.242;8.670;2023-04-15T02:19:15;3.90;99.90
47765;DHT22;33529;49.242;8.670;2023-04-15T02:21:42;4.00;99.90
47765;DHT22;33529;49.242;8.670;2023-04-15T02:24:09;3.80;99.90
47765;DHT22;33529;49.242;8.670;2023-04-15T02:26:40;3.80;99.90
47765;DHT22;33529;49.242;8.670;2023-04-15T02:29:07;3.70;99.90
47765;DHT22;33529;49.242;8.670;2023-04-15T02:31:33;3.50;99.90
47765;DHT22;33529;49.242;8.670;2023-04-15T02:34:03;3.40;99.90
47765;DHT22;33529;49.242;8.670;2023-04-15T02:36:30;3.30;99.90
47765;DHT22;33529;49.242;8.670;2023-04-15T02:38:57;3.30;99.90
47765;DHT22;33529;49.242;8.670;2023-04-15T02:41:25;3.30;99.90
47765;DHT22;33529;49.242;8.670;2023-04-15T02:43:54;3.30;99.90
47765;DHT22;33529;49.242;8.670;2023-04-15T02:46:21;3.40;99.90
47765;DHT22;33529;49.242;8.670;2023-04-15T02:48:49;3.30;99.90
47765;DHT22;33529;49.242;8.670;2023-04-15T02:51:20;3.30;99.90
47765;DHT22;33529;49.242;8.670;2023-04-15T02:53:48;3.30;99.90
47765;DHT22;33529;49.242;8.670;2023-04-15T02:56:15;3.30;99.90
47765;DHT22;33529;49.242;8.670;2023-04-15T02:58:44;3.40;99.90
47765;DHT22;33529;49.242;8.670;2023-04-15T03:01:11;3.40;99.90
47765;DHT22;33529;49.242;8.670;2023-04-15T03:03:39;3.40;99.90
47765;DHT22;33529;49.242;8.670;2023-04-15T03:06:06;3.50;99.90
47765;DHT22;33529;49.242;8.670;2023-04-15T03:08:34;3.60;99.90
47765;DHT22;33529;49.242;8.670;2023-04-15T03:11:01;3.50;99.90
47765;DHT22;33529;49.242;8.670;2023-04-15T03:13:29;3.50;99.90
47765;DHT22;33529;49.242;8.670;2023-04-15T03:15:57;3.50;99.90
47765;DHT22;33529;49.242;8.670;2023-04-15T03:18:25;3.50;99.90
47765;DHT22;33529;49.242;8.670;2023-04-15T03:20:52;3.60;99.90
47765;DHT22;33529;49.242;8.670;2023-04-15T03:23:19;3.70;99.90
47765;DHT22;33529;49.242;8.670;2023-04-15T03:25:47;3.60;99.90
47765;DHT22;33529;49.242;8.670;2023-04-15T03:28:14;3.60;99.90
47765;DHT22;33529;49.242;8.670;2023-04-15T03:30:41;3.60;99.90
47765;DHT22;33529;49.242;8.670;2023-04-15T03:33:08;3.50;99.90
47765;DHT22;33529;49.242;8.670;2023-04-15T03:35:36;3.40;99.90
47765;DHT22;33529;49.242;8.670;2023-04-15T03:38:03;3.50;99.90
47765;DHT22;33529;49.242;8.670;2023-04-15T03:40:30;3.50;99.90
47765;DHT22;33529;49.242;8.670;2023-04-15T03:42:57;3.40;99.90
47765;DHT22;33529;49.242;8.670;2023-04-15T03:45:24;3.40;99.90
47765;DHT22;33529;49.242;8.670;2023-04-15T03:47:51;3.30;99.90
47765;DHT22;33529;49.242;8.670;2023-04-15T03:50:18;3.30;99.90
47765;DHT22;33529;49.242;8.670;2023-04-15T03:52:44;3.30;99.90
47765;DHT22;33529;49.242;8.670;2023-04-15T03:55:11;3.20;99.90
47765;DHT22;33529;49.242;8.670;2023-04-15T03:57:38;3.20;99.90
47765;DHT22;33529;49.242;8.670;2023-04-15T04:00:06;3.20;99.90
47765;DHT22;33529;49.242;8.670;2023-04-15T04:02:37;3.20;99.90
47765;DHT22;33529;49.242;8.670;2023-04-15T04:05:04;3.20;99.90
47765;DHT22;33529;49.242;8.670;2023-04-15T04:07:31;3.20;99.90
47765;DHT22;33529;49.242;8.670;2023-04-15T04:09:58;3.20;99.90
47765;DHT22;33529;49.242;8.670;2023-04-15T04:12:25;3.20;99.90
47765;DHT22;33529;49.242;8.670;2023-04-15T04:14:52;3.10;99.90
47765;DHT22;33529;49.242;8.670;2023-04-15T04:17:18;3.10;99.90
47765;DHT22;33529;49.242;8.670;2023-04-15T04:19:45;3.10;99.90
47765;DHT22;33529;49.242;8.670;2023-04-15T04:22:12;3.10;99.90
47765;DHT22;33529;49.242;8.670;2023-04-15T04:24:39;3.20;99.90
47765;DHT22;33529;49.242;8.670;2023-04-15T04:27:05;3.20;99.90
47765;DHT22;33529;49.242;8.670;2023-04-15T04:29:32;3.30;99.90
47765;DHT22;33529;49.242;8.670;2023-04-15T04:31:59;3.30;99.90
47765;DHT22;33529;49.242;8.670;2023-04-15T04:34:28;3.30;99.90
47765;DHT22;33529;49.242;8.670;2023-04-15T04:36:55;3.30;99.90
47765;DHT22;33529;49.242;8.670;2023-04-15T04:39:23;3.20;99.90
47765;DHT22;33529;49.242;8.670;2023-04-15T04:41:51;3.10;99.90
47765;DHT22;33529;49.242;8.670;2023-04-15T04:44:18;3.10;99.90
47765;DHT22;33529;49.242;8.670;2023-04-15T04:46:44;3.00;99.90
47765;DHT22;33529;49.242;8.670;2023-04-15T04:49:11;3.00;99.90
47765;DHT22;33529;49.242;8.670;2023-04-15T04:51:38;2.90;99.90
47765;DHT22;33529;49.242;8.670;2023-04-15T04:54:04;2.90;99.90
47765;DHT22;33529;49.242;8.670;2023-04-15T04:56:31;3.00;99.90
47765;DHT22;33529;49.242;8.670;2023-04-15T04:59:00;3.00;99.90
47765;DHT22;33529;49.242;8.670;2023-04-15T05:01:27;3.10;99.90
47765;DHT22;33529;49.242;8.670;2023-04-15T05:03:54;3.10;99.90
47765;DHT22;33529;49.242;8.670;2023-04-15T05:06:21;3.10;99.90
47765;DHT22;33529;49.242;8.670;2023-04-15T05:08:48;3.20;99.90
47765;DHT22;33529;49.242;8.670;2023-04-15T05:11:15;3.30;99.90
47765;DHT22;33529;49.242;8.670;2023-04-15T05:13:41;3.40;99.90
47765;DHT22;33529;49.242;8.670;2023-04-15T05:16:08;3.40;99.90
47765;DHT22;33529;49.242;8.670;2023-04-15T05:18:35;3.40;99.90
47765;DHT22;33529;49.242;8.670;2023-04-15T05:21:02;3.40;99.90
47765;DHT22;33529;49.242;8.670;2023-04-15T05:23:29;3.40;99.90
47765;DHT22;33529;49.242;8.670;2023-04-15T05:25:56;3.40;99.90
47765;DHT22;33529;49.242;8.670;2023-04-15T05:28:23;3.40;99.90
47765;DHT22;33529;49.242;8.670;2023-04-15T05:30:49;3.40;99.90
47765;DHT22;33529;49.242;8.670;2023-04-15T05:33:16;3.40;99.90
47765;DHT22;33529;49.242;8.670;2023-04-15T05:35:43;3.40;99.90
47765;DHT22;33529;49.242;8.670;2023-04-15T05:38:10;3.40;99.90
47765;DHT22;33529;49.242;8.670;2023-04-15T05:40:36;3.40;99.90
47765;DHT22;33529;49.242;8.670;2023-04-15T05:43:03;3.30;99.90
47765;DHT22;33529;49.242;8.670;2023-04-15T05:45:30;3.30;99.90
47765;DHT22;33529;49.242;8.670;2023-04-15T05:47:57;3.40;99.90
47765;DHT22;33529;49.242;8.670;2023-04-15T05:50:24;3.40;99.90
47765;DHT22;33529;49.242;8.670;2023-04-15T05:52:50;3.40;99.90
47765;DHT22;33529;49.242;8.670;2023-04-15T05:55:17;3.60;99.90
47765;DHT22;33529;49.242;8.670;2023-04-15T05:57:44;3.70;99.90
47765;DHT22;33529;49.242;8.670;2023-04-15T06:00:11;3.90;99.90
47765;DHT22;33529;49.242;8.670;2023-04-15T06:02:38;4.00;99.90
47765;DHT22;33529;49.242;8.670;2023-04-15T06:05:05;4.20;99.90
47765;DHT22;33529;49.242;8.670;2023-04-15T06:07:36;4.30;99.90
47765;DHT22;33529;49.242;8.670;2023-04-15T06:10:04;4.60;99.90
47765;DHT22;33529;49.242;8.670;2023-04-15T06:12:31;4.80;99.90
47765;DHT22;33529;49.242;8.670;2023-04-15T06:14:58;5.00;99.90
47765;DHT22;33529;49.242;8.670;2023-04-15T06:17:26;5.10;99.90
47765;DHT22;33529;49.242;8.670;2023-04-15T06:19:53;5.20;99.90
47765;DHT22;33529;49.242;8.670;2023-04-15T06:22:22;5.30;99.90
47765;DHT22;33529;49.242;8.670;2023-04-15T06:24:49;5.40;99.90
47765;DHT22;33529;49.242;8.670;2023-04-15T06:27:16;5.70;99.90
47765;DHT22;33529;49.242;8.670;2023-04-15T06:29:43;5.80;99.90
47765;DHT22;33529;49.242;8.670;2023-04-15T06:32:10;5.70;99.90
47765;DHT22;33529;49.242;8.670;2023-04-15T06:34:37;5.90;99.90
47765;DHT22;33529;49.242;8.670;2023-04-15T06:37:04;6.00;99.90
47765;DHT22;33529;49.242;8.670;2023-04-15T06:39:32;6.20;99.90
47765;DHT22;33529;49.242;8.670;2023-04-15T06:41:58;6.30;99.90
47765;DHT22;33529;49.242;8.670;2023-04-15T06:44:25;6.50;99.90
47765;DHT22;33529;49.242;8.670;2023-04-15T06:46:52;6.80;99.90
47765;DHT22;33529;49.242;8.670;2023-04-15T06:49:19;7.10;99.90
47765;DHT22;33529;49.242;8.670;2023-04-15T06:51:46;7.40;99.90
47765;DHT22;33529;49.242;8.670;2023-04-15T06:54:13;7.50;99.90
47765;DHT22;33529;49.242;8.670;2023-04-15T06:56:39;7.70;99.90
47765;DHT22;33529;49.242;8.670;2023-04-15T06:59:07;7.80;99.90
47765;DHT22;33529;49.242;8.670;2023-04-15T07:01:34;7.90;99.90
47765;DHT22;33529;49.242;8.670;2023-04-15T07:04:01;7.90;99.90
47765;DHT22;33529;49.242;8.670;2023-04-15T07:06:28;7.80;99.90
47765;DHT22;33529;49.242;8.670;2023-04-15T07:08:55;7.90;99.90
47765;DHT22;33529;49.242;8.670;2023-04-15T07:11:24;8.00;99.90
47765;DHT22;33529;49.242;8.670;2023-04-15T07:13:51;8.20;99.90
47765;DHT22;33529;49.242;8.670;2023-04-15T07:16:18;8.50;99.90
47765;DHT22;33529;49.242;8.670;2023-04-15T07:18:45;8.60;99.90
47765;DHT22;33529;49.242;8.670;2023-04-15T07:21:11;8.80;99.90
47765;DHT22;33529;49.242;8.670;2023-04-15T07:23:38;8.90;99.90
47765;DHT22;33529;49.242;8.670;2023-04-15T07:26:05;9.10;99.90
47765;DHT22;33529;49.242;8.670;2023-04-15T07:28:32;9.20;99.90
47765;DHT22;33529;49.242;8.670;2023-04-15T07:30:58;9.40;99.90
47765;DHT22;33529;49.242;8.670;2023-04-15T07:33:25;9.50;99.90
47765;DHT22;33529;49.242;8.670;2023-04-15T07:35:52;9.60;99.90
47765;DHT22;33529;49.242;8.670;2023-04-15T07:38:19;9.60;99.90
47765;DHT22;33529;49.242;8.670;2023-04-15T07:40:46;9.70;99.90
47765;DHT22;33529;49.242;8.670;2023-04-15T07:43:13;9.50;99.90
47765;DHT22;33529;49.242;8.670;2023-04-15T07:45:40;9.60;99.90
47765;DHT22;33529;49.242;8.670;2023-04-15T07:48:07;9.70;99.90
47765;DHT22;33529;49.242;8.670;2023-04-15T07:50:34;9.70;99.90
47765;DHT22;33529;49.242;8.670;2023-04-15T07:53:01;9.80;99.90
47765;DHT22;33529;49.242;8.670;2023-04-15T07:55:27;9.90;99.90
47765;DHT22;33529;49.242;8.670;2023-04-15T07:57:56;10.00;99.90
47765;DHT22;33529;49.242;8.670;2023-04-15T08:00:22;10.00;99.90
47765;DHT22;33529;49.242;8.670;2023-04-15T08:02:49;10.00;99.90
47765;DHT22;33529;49.242;8.670;2023-04-15T08:05:19;10.20;99.90
47765;DHT22;33529;49.242;8.670;2023-04-15T08:07:46;10.40;99.90
47765;DHT22;33529;49.242;8.670;2023-04-15T08:10:13;10.40;99.90
47765;DHT22;33529;49.242;8.670;2023-04-15T08:12:40;10.50;99.90
47765;DHT22;33529;49.242;8.670;2023-04-15T08:15:07;10.60;99.90
47765;DHT22;33529;49.242;8.670;2023-04-15T08:17:34;10.70;99.90
47765;DHT22;33529;49.242;8.670;2023-04-15T08:20:02;10.70;99.90
47765;DHT22;33529;49.242;8.670;2023-04-15T08:22:30;10.80;99.90
47765;DHT22;33529;49.242;8.670;2023-04-15T08:24:56;10.80;99.90
47765;DHT22;33529;49.242;8.670;2023-04-15T08:27:23;10.80;99.90
47765;DHT22;33529;49.242;8.670;2023-04-15T08:29:50;10.80;99.90
47765;DHT22;33529;49.242;8.670;2023-04-15T08:32:17;11.00;99.90
47765;DHT22;33529;49.242;8.670;2023-04-15T08:34:44;11.20;99.90
47765;DHT22;33529;49.242;8.670;2023-04-15T08:37:11;11.40;99.90
47765;DHT22;33529;49.242;8.670;2023-04-15T08:39:38;11.60;99.90
47765;DHT22;33529;49.242;8.670;2023-04-15T08:42:10;11.60;99.90
47765;DHT22;33529;49.242;8.670;2023-04-15T08:44:37;11.40;99.90
47765;DHT22;33529;49.242;8.670;2023-04-15T08:47:07;11.40;99.90
47765;DHT22;33529;49.242;8.670;2023-04-15T08:49:39;11.50;99.90
47765;DHT22;33529;49.242;8.670;2023-04-15T08:52:08;11.50;99.90
47765;DHT22;33529;49.242;8.670;2023-04-15T08:54:35;11.80;99.90
47765;DHT22;33529;49.242;8.670;2023-04-15T08:57:03;11.90;99.90
47765;DHT22;33529;49.242;8.670;2023-04-15T08:59:30;12.00;99.90
47765;DHT22;33529;49.242;8.670;2023-04-15T09:01:57;12.00;99.90
47765;DHT22;33529;49.242;8.670;2023-04-15T09:04:24;12.00;99.90
47765;DHT22;33529;49.242;8.670;2023-04-15T09:06:51;12.20;99.90
47765;DHT22;33529;49.242;8.670;2023-04-15T09:09:18;12.20;99.90
47765;DHT22;33529;49.242;8.670;2023-04-15T09:11:45;12.30;99.90
47765;DHT22;33529;49.242;8.670;2023-04-15T09:14:12;12.40;99.90
47765;DHT22;33529;49.242;8.670;2023-04-15T09:16:58;12.60;99.90
47765;DHT22;33529;49.242;8.670;2023-04-15T09:19:26;12.80;99.90
47765;DHT22;33529;49.242;8.670;2023-04-15T09:21:55;13.00;99.90
47765;DHT22;33529;49.242;8.670;2023-04-15T09:24:34;13.10;99.90
47765;DHT22;33529;49.242;8.670;2023-04-15T09:27:03;13.20;99.90
47765;DHT22;33529;49.242;8.670;2023-04-15T09:29:29;13.40;99.90
47765;DHT22;33529;49.242;8.670;2023-04-15T09:32:08;13.50;99.90
47765;DHT22;33529;49.242;8.670;2023-04-15T09:34:35;13.40;99.90
47765;DHT22;33529;49.242;8.670;2023-04-15T09:37:03;13.50;99.90
47765;DHT22;33529;49.242;8.670;2023-04-15T09:39:50;13.50;99.90
47765;DHT22;33529;49.242;8.670;2023-04-15T09:42:17;13.50;99.90
47765;DHT22;33529;49.242;8.670;2023-04-15T09:44:50;13.80;99.90
47765;DHT22;33529;49.242;8.670;2023-04-15T09:47:28;14.00;99.90
47765;DHT22;33529;49.242;8.670;2023-04-15T09:49:56;14.00;99.90
47765;DHT22;33529;49.242;8.670;2023-04-15T09:52:23;13.90;99.90
47765;DHT22;33529;49.242;8.670;2023-04-15T09:54:52;14.00;99.90
47765;DHT22;33529;49.242;8.670;2023-04-15T09:57:20;14.10;99.90
47765;DHT22;33529;49.242;8.670;2023-04-15T09:59:47;14.20;99.90
47765;DHT22;33529;49.242;8.670;2023-04-15T10:02:15;14.20;99.90
47765;DHT22;33529;49.242;8.670;2023-04-15T10:04:44;14.30;99.90
47765;DHT22;33529;49.242;8.670;2023-04-15T10:07:11;14.60;99.90
47765;DHT22;33529;49.242;8.670;2023-04-15T10:09:38;14.60;98.60
47765;DHT22;33529;49.242;8.670;2023-04-15T10:12:05;14.60;98.10
47765;DHT22;33529;49.242;8.670;2023-04-15T10:14:34;14.40;96.30
47765;DHT22;33529;49.242;8.670;2023-04-15T10:17:04;14.20;96.50
47765;DHT22;33529;49.242;8.670;2023-04-15T10:19:33;14.10;96.00
47765;DHT22;33529;49.242;8.670;2023-04-15T10:22:02;14.00;95.80
47765;DHT22;33529;49.242;8.670;2023-04-15T10:24:32;14.00;96.20
47765;DHT22;33529;49.242;8.670;2023-04-15T10:27:00;14.10;96.70
47765;DHT22;33529;49.242;8.670;2023-04-15T10:29:29;14.30;95.60
47765;DHT22;33529;49.242;8.670;2023-04-15T10:31:58;14.20;95.10
47765;DHT22;33529;49.242;8.670;2023-04-15T10:34:25;14.30;95.00
47765;DHT22;33529;49.242;8.670;2023-04-15T10:36:57;14.40;94.90
47765;DHT22;33529;49.242;8.670;2023-04-15T10:39:45;14.40;94.40
47765;DHT22;33529;49.242;8.670;2023-04-15T10:42:13;14.40;96.10
47765;DHT22;33529;49.242;8.670;2023-04-15T10:44:47;14.40;94.30
47765;DHT22;33529;49.242;8.670;2023-04-15T10:47:16;14.40;95.60
47765;DHT22;33529;49.242;8.670;2023-04-15T10:49:47;14.60;95.00
47765;DHT22;33529;49.242;8.670;2023-04-15T10:52:15;14.60;96.00
47765;DHT22;33529;49.242;8.670;2023-04-15T10:54:43;15.00;96.00
47765;DHT22;33529;49.242;8.670;2023-04-15T10:57:16;15.00;95.00
47765;DHT22;33529;49.242;8.670;2023-04-15T10:59:59;15.10;94.20
47765;DHT22;33529;49.242;8.670;2023-04-15T11:02:43;14.90;93.60
47765;DHT22;33529;49.242;8.670;2023-04-15T11:05:12;14.80;94.40
47765;DHT22;33529;49.242;8.670;2023-04-15T11:15:38;14.40;93.40
47765;DHT22;33529;49.242;8.670;2023-04-15T11:18:14;14.30;93.90
47765;DHT22;33529;49.242;8.670;2023-04-15T11:20:53;14.40;94.20
47765;DHT22;33529;49.242;8.670;2023-04-15T11:23:38;14.60;92.90
47765;DHT22;33529;49.242;8.670;2023-04-15T11:26:07;14.70;92.90
47765;DHT22;33529;49.242;8.670;2023-04-15T11:28:40;14.70;93.60
47765;DHT22;33529;49.242;8.670;2023-04-15T11:31:13;14.50;93.50
47765;DHT22;33529;49.242;8.670;2023-04-15T11:33:46;14.60;93.80
47765;DHT22;33529;49.242;8.670;2023-04-15T11:36:13;14.70;93.30
47765;DHT22;33529;49.242;8.670;2023-04-15T11:38:43;14.80;92.60
47765;DHT22;33529;49.242;8.670;2023-04-15T11:41:10;14.90;91.60
47765;DHT22;33529;49.242;8.670;2023-04-15T11:43:37;15.00;88.00
47765;DHT22;33529;49.242;8.670;2023-04-15T11:46:04;14.90;83.50
47765;DHT22;33529;49.242;8.670;2023-04-15T11:48:33;14.70;84.20
47765;DHT22;33529;49.242;8.670;2023-04-15T11:51:02;14.60;83.70
47765;DHT22;33529;49.242;8.670;2023-04-15T11:53:42;14.60;83.30
47765;DHT22;33529;49.242;8.670;2023-04-15T11:56:15;14.80;84.40
47765;DHT22;33529;49.242;8.670;2023-04-15T11:58:42;14.60;81.70
47765;DHT22;33529;49.242;8.670;2023-04-15T12:01:10;14.40;79.90
47765;DHT22;33529;49.242;8.670;2023-04-15T12:03:39;14.50;82.20
47765;DHT22;33529;49.242;8.670;2023-04-15T12:06:22;14.80;82.90
47765;DHT22;33529;49.242;8.670;2023-04-15T12:09:00;14.70;85.40
47765;DHT22;33529;49.242;8.670;2023-04-15T12:19:36;14.50;85.40
47765;DHT22;33529;49.242;8.670;2023-04-15T12:22:05;14.50;84.90
47765;DHT22;33529;49.242;8.670;2023-04-15T12:24:35;14.70;85.00
47765;DHT22;33529;49.242;8.670;2023-04-15T12:27:07;14.80;85.30
47765;DHT22;33529;49.242;8.670;2023-04-15T12:29:35;14.70;85.80
47765;DHT22;33529;49.242;8.670;2023-04-15T12:32:07;14.40;83.40
47765;DHT22;33529;49.242;8.670;2023-04-15T12:34:36;14.20;86.00
47765;DHT22;33529;49.242;8.670;2023-04-15T12:37:05;14.10;84.00
47765;DHT22;33529;49.242;8.670;2023-04-15T12:39:40;13.90;86.20
47765;DHT22;33529;49.242;8.670;2023-04-15T12:42:08;13.70;85.10
47765;DHT22;33529;49.242;8.670;2023-04-15T12:44:36;13.60;86.70
47765;DHT22;33529;49.242;8.670;2023-04-15T12:47:04;13.60;87.70
47765;DHT22;33529;49.242;8.670;2023-04-15T12:49:31;13.50;88.60
47765;DHT22;33529;49.242;8.670;2023-04-15T12:52:00;13.50;86.90
47765;DHT22;33529;49.242;8.670;2023-04-15T12:54:27;13.50;88.70
47765;DHT22;33529;49.242;8.670;2023-04-15T12:56:55;13.40;89.40
47765;DHT22;33529;49.242;8.670;2023-04-15T12:59:22;13.40;90.50
47765;DHT22;33529;49.242;8.670;2023-04-15T13:01:50;13.30;88.30
47765;DHT22;33529;49.242;8.670;2023-04-15T13:04:19;13.20;89.80
47765;DHT22;33529;49.242;8.670;2023-04-15T13:06:46;13.30;89.40
47765;DHT22;33529;49.242;8.670;2023-04-15T13:09:13;13.20;90.70
47765;DHT22;33529;49.242;8.670;2023-04-15T13:11:40;13.30;90.20
47765;DHT22;33529;49.242;8.670;2023-04-15T13:14:08;13.20;88.90
47765;DHT22;33529;49.242;8.670;2023-04-15T13:16:37;13.20;90.30
47765;DHT22;33529;49.242;8.670;2023-04-15T13:19:04;13.10;90.50
47765;DHT22;33529;49.242;8.670;2023-04-15T13:21:31;13.20;90.10
47765;DHT22;33529;49.242;8.670;2023-04-15T13:24:01;13.20;91.00
47765;DHT22;33529;49.242;8.670;2023-04-15T13:26:28;13.20;90.70
47765;DHT22;33529;49.242;8.670;2023-04-15T13:28:55;13.10;91.40
47765;DHT22;33529;49.242;8.670;2023-04-15T13:31:22;13.10;91.70
47765;DHT22;33529;49.242;8.670;2023-04-15T13:33:48;12.90;93.00
47765;DHT22;33529;49.242;8.670;2023-04-15T13:36:15;12.90;92.60
47765;DHT22;33529;49.242;8.670;2023-04-15T13:38:42;12.90;91.80
47765;DHT22;33529;49.242;8.670;2023-04-15T13:41:09;13.00;91.80
47765;DHT22;33529;49.242;8.670;2023-04-15T13:43:36;13.00;92.30
47765;DHT22;33529;49.242;8.670;2023-04-15T13:46:03;13.10;93.80
47765;DHT22;33529;49.242;8.670;2023-04-15T13:48:30;13.10;90.70
47765;DHT22;33529;49.242;8.670;2023-04-15T13:50:57;13.10;90.70
47765;DHT22;33529;49.242;8.670;2023-04-15T13:53:24;13.20;89.70
47765;DHT22;33529;49.242;8.670;2023-04-15T13:56:07;13.30;90.70
47765;DHT22;33529;49.242;8.670;2023-04-15T13:58:36;13.40;90.30
47765;DHT22;33529;49.242;8.670;2023-04-15T14:01:03;13.40;91.00
47765;DHT22;33529;49.242;8.670;2023-04-15T14:03:33;13.50;90.70
47765;DHT22;33529;49.242;8.670;2023-04-15T14:06:00;13.50;88.60
47765;DHT22;33529;49.242;8.670;2023-04-15T14:08:27;13.50;85.20
47765;DHT22;33529;49.242;8.670;2023-04-15T14:10:55;13.50;87.00
47765;DHT22;33529;49.242;8.670;2023-04-15T14:13:23;13.30;85.80
47765;DHT22;33529;49.242;8.670;2023-04-15T14:15:49;13.30;87.30
47765;DHT22;33529;49.242;8.670;2023-04-15T14:18:16;13.20;86.20
47765;DHT22;33529;49.242;8.670;2023-04-15T14:20:43;13.20;86.20
47765;DHT22;33529;49.242;8.670;2023-04-15T14:23:10;13.20;89.10
47765;DHT22;33529;49.242;8.670;2023-04-15T14:25:36;13.30;88.70
47765;DHT22;33529;49.242;8.670;2023-04-15T14:28:04;13.30;88.70
47765;DHT22;33529;49.242;8.670;2023-04-15T14:30:31;13.30;90.70
47765;DHT22;33529;49.242;8.670;2023-04-15T14:32:58;13.40;91.40
47765;DHT22;33529;49.242;8.670;2023-04-15T14:35:25;13.50;91.60
47765;DHT22;33529;49.242;8.670;2023-04-15T14:37:53;13.50;92.50
47765;DHT22;33529;49.242;8.670;2023-04-15T14:40:20;13.60;91.90
47765;DHT22;33529;49.242;8.670;2023-04-15T14:42:47;13.60;92.40
47765;DHT22;33529;49.242;8.670;2023-04-15T14:45:14;13.60;92.40
47765;DHT22;33529;49.242;8.670;2023-04-15T14:47:40;13.50;92.60
47765;DHT22;33529;49.242;8.670;2023-04-15T14:50:08;13.30;93.10
47765;DHT22;33529;49.242;8.670;2023-04-15T14:52:35;13.20;94.00
47765;DHT22;33529;49.242;8.670;2023-04-15T14:55:06;13.10;94.40
47765;DHT22;33529;49.242;8.670;2023-04-15T14:57:33;13.20;95.10
47765;DHT22;33529;49.242;8.670;2023-04-15T15:00:00;13.10;95.20
47765;DHT22;33529;49.242;8.670;2023-04-15T15:02:27;12.90;96.20
47765;DHT22;33529;49.242;8.670;2023-04-15T15:05:05;12.90;96.40
47765;DHT22;33529;49.242;8.670;2023-04-15T15:07:32;12.70;96.90
47765;DHT22;33529;49.242;8.670;2023-04-15T15:09:59;12.70;97.50
47765;DHT22;33529;49.242;8.670;2023-04-15T15:12:26;12.70;98.30
47765;DHT22;33529;49.242;8.670;2023-04-15T15:14:54;12.60;99.40
47765;DHT22;33529;49.242;8.670;2023-04-15T15:17:21;12.50;99.90
47765;DHT22;33529;49.242;8.670;2023-04-15T15:19:48;12.30;99.90
47765;DHT22;33529;49.242;8.670;2023-04-15T15:22:15;12.10;99.90
47765;DHT22;33529;49.242;8.670;2023-04-15T15:24:45;12.00;99.90
47765;DHT22;33529;49.242;8.670;2023-04-15T15:27:11;12.00;99.90
47765;DHT22;33529;49.242;8.670;2023-04-15T15:29:38;11.90;99.90
47765;DHT22;33529;49.242;8.670;2023-04-15T15:32:05;11.80;99.90
47765;DHT22;33529;49.242;8.670;2023-04-15T15:34:32;11.70;99.90
47765;DHT22;33529;49.242;8.670;2023-04-15T15:36:59;11.70;99.90
47765;DHT22;33529;49.242;8.670;2023-04-15T15:39:26;11.60;99.90
47765;DHT22;33529;49.242;8.670;2023-04-15T15:41:53;11.40;99.90
47765;DHT22;33529;49.242;8.670;2023-04-15T15:44:20;11.40;99.90
47765;DHT22;33529;49.242;8.670;2023-04-15T15:46:47;11.20;99.90
47765;DHT22;33529;49.242;8.670;2023-04-15T15:49:15;11.10;99.90
47765;DHT22;33529;49.242;8.670;2023-04-15T15:51:42;11.00;99.90
47765;DHT22;33529;49.242;8.670;2023-04-15T15:54:09;10.80;99.90
47765;DHT22;33529;49.242;8.670;2023-04-15T15:56:35;10.80;99.90
47765;DHT22;33529;49.242;8.670;2023-04-15T15:59:04;10.70;99.90